Search for airport 
image banner adimage banner adimage banner ad
image banner ad

47PA - Homan

Located in State College, United States

ICAO - 47PA, IATA -

Data provided by Airmate  

General information

Coordinates: N40°43'10" W77°57'41"
Elevation is 1217 feet MSL.
Magnetic variation is -09° East
View others Airports in Pennsylvania

Operational data

Special qualification required
Current time UTC:
Current local time:
Weather at : KUNV - University Park ( 17 km )
METAR: KUNV 182153Z 21006KT 10SM SCT070 25/06 A3027
TAF: KUNV 182225Z 1822/1918 VRB04KT P6SM SKC FM190100 00000KT P6SM SKC FM191600 VRB04KT P6SM SCT250
View NOTAMs / SUP AIP / TFR affecting this airport [VIEW]
Communications frequencies: [VIEW]

Runways:

RWY identifierQFULength (ft)Width (ft)SurfaceLDA (ft)
NE236°230055GRASS
SW56°230055GRASS

Airport contact information

Address: State College United States

Satellite view of 47PA